createdAt,value
2022-11-09T00:01:42.896Z,4.63
2022-11-09T00:04:12.611Z,4.77
2022-11-09T00:06:40.861Z,5.50
2022-11-09T00:09:10.261Z,5.47
2022-11-09T00:11:38.990Z,5.70
2022-11-09T00:14:15.540Z,7.17
2022-11-09T00:16:44.071Z,6.57
2022-11-09T00:19:14.099Z,6.30
2022-11-09T00:21:42.847Z,5.27
2022-11-09T00:24:11.643Z,4.33
2022-11-09T00:26:40.059Z,3.83
2022-11-09T00:29:09.895Z,3.37
2022-11-09T00:31:38.535Z,3.07
2022-11-09T00:34:08.751Z,2.50
2022-11-09T00:36:36.951Z,2.50
2022-11-09T00:39:06.222Z,2.40
2022-11-09T00:41:34.489Z,2.13
2022-11-09T00:44:02.988Z,2.10
2022-11-09T00:46:33.325Z,2.67
2022-11-09T00:49:02.257Z,2.60
2022-11-09T00:51:31.364Z,2.30
2022-11-09T00:53:59.862Z,2.50
2022-11-09T00:56:28.406Z,3.40
2022-11-09T00:58:57.364Z,2.97
2022-11-09T01:01:26.717Z,2.07
2022-11-09T01:03:56.718Z,2.30
2022-11-09T01:06:27.505Z,2.07
2022-11-09T01:08:56.737Z,2.10
2022-11-09T01:11:25.504Z,2.20
2022-11-09T01:13:55.174Z,2.13
2022-11-09T01:16:25.403Z,2.50
2022-11-09T01:18:58.035Z,2.20
2022-11-09T01:21:28.300Z,2.60
2022-11-09T01:23:58.776Z,2.20
2022-11-09T01:26:29.054Z,2.73
2022-11-09T01:28:57.696Z,2.20
2022-11-09T01:31:26.886Z,2.30
2022-11-09T01:33:57.282Z,2.57
2022-11-09T01:36:26.960Z,2.50
2022-11-09T01:38:55.173Z,2.00
2022-11-09T01:41:27.514Z,2.40
2022-11-09T01:44:11.844Z,2.53
2022-11-09T01:46:51.254Z,2.30
2022-11-09T01:49:37.311Z,2.30
2022-11-09T01:52:14.047Z,2.53
2022-11-09T01:54:56.447Z,2.00
2022-11-09T01:57:31.858Z,2.03
2022-11-09T02:00:23.083Z,2.23
2022-11-09T02:02:56.091Z,2.60
2022-11-09T02:05:32.695Z,2.13
2022-11-09T02:08:06.126Z,1.97
2022-11-09T02:10:44.718Z,2.47
2022-11-09T02:13:18.428Z,2.50
2022-11-09T02:15:47.412Z,1.83
2022-11-09T02:18:16.052Z,2.03
2022-11-09T02:20:50.044Z,2.53
2022-11-09T02:23:19.631Z,2.10
2022-11-09T02:25:54.415Z,2.10
2022-11-09T02:28:24.185Z,2.00
2022-11-09T02:30:55.466Z,2.20
2022-11-09T02:33:24.122Z,2.30
2022-11-09T02:35:55.504Z,2.40
2022-11-09T02:38:24.504Z,2.10
2022-11-09T02:40:54.183Z,2.37
2022-11-09T02:43:23.119Z,2.67
2022-11-09T02:45:51.764Z,2.30
2022-11-09T02:48:20.002Z,2.00
2022-11-09T02:50:48.695Z,1.80
2022-11-09T02:58:08.928Z,2.90
2022-11-09T03:00:38.305Z,2.40
2022-11-09T03:03:08.491Z,2.27
2022-11-09T03:05:37.820Z,2.20
2022-11-09T03:08:06.703Z,2.20
2022-11-09T03:10:37.025Z,2.47
2022-11-09T03:13:05.367Z,2.13
2022-11-09T03:15:35.720Z,2.13
2022-11-09T03:18:04.384Z,2.30
2022-11-09T03:20:33.716Z,2.00
2022-11-09T03:23:04.529Z,1.90
2022-11-09T03:25:35.240Z,1.70
2022-11-09T03:28:07.491Z,2.63
2022-11-09T03:30:37.443Z,2.33
2022-11-09T03:33:10.452Z,1.50
2022-11-09T03:35:39.780Z,1.40
2022-11-09T03:38:09.896Z,1.70
2022-11-09T03:40:39.106Z,2.00
2022-11-09T03:43:07.664Z,1.53
2022-11-09T03:45:38.108Z,1.70
2022-11-09T03:48:07.218Z,1.87
2022-11-09T03:50:40.702Z,1.70
2022-11-09T03:53:10.553Z,1.40
2022-11-09T03:55:40.272Z,1.50
2022-11-09T03:58:12.296Z,1.50
2022-11-09T04:00:42.640Z,1.37
2022-11-09T04:03:11.174Z,1.60
2022-11-09T04:05:40.087Z,1.10
2022-11-09T04:08:08.326Z,1.10
2022-11-09T04:10:37.325Z,1.13
2022-11-09T04:13:05.546Z,0.90
2022-11-09T04:15:34.189Z,0.93
2022-11-09T04:18:04.625Z,0.90
2022-11-09T04:20:33.852Z,1.20
2022-11-09T04:23:05.956Z,1.10
2022-11-09T04:25:37.234Z,1.23
2022-11-09T04:28:08.871Z,1.13
2022-11-09T04:30:38.737Z,1.20
2022-11-09T04:33:08.276Z,1.20
2022-11-09T04:35:37.382Z,1.13
2022-11-09T04:38:08.577Z,1.20
2022-11-09T04:40:37.446Z,0.93
2022-11-09T04:43:09.632Z,1.10
2022-11-09T04:45:38.076Z,0.90
2022-11-09T04:48:09.606Z,0.80
2022-11-09T04:50:38.047Z,0.90
2022-11-09T04:53:09.938Z,0.60
2022-11-09T04:55:38.869Z,0.83
2022-11-09T04:58:08.054Z,0.73
2022-11-09T05:00:38.653Z,1.00
2022-11-09T05:03:09.255Z,1.03
2022-11-09T05:05:45.451Z,0.90
2022-11-09T05:08:17.075Z,2.13
2022-11-09T05:10:45.705Z,1.30
2022-11-09T05:13:15.113Z,1.20
2022-11-09T05:15:44.809Z,1.00
2022-11-09T05:18:14.797Z,1.00
2022-11-09T05:20:43.043Z,0.90
2022-11-09T05:23:29.475Z,1.10
2022-11-09T05:25:58.057Z,1.43
2022-11-09T05:28:26.276Z,1.43
2022-11-09T05:30:54.466Z,1.03
2022-11-09T05:33:24.415Z,2.63
2022-11-09T05:35:54.952Z,1.30
2022-11-09T05:38:23.583Z,1.70
2022-11-09T05:40:52.575Z,2.30
2022-11-09T05:43:22.289Z,2.17
2022-11-09T05:45:50.641Z,1.90
2022-11-09T05:48:19.786Z,2.13
2022-11-09T05:50:49.765Z,1.80
2022-11-09T05:53:26.420Z,2.13
2022-11-09T05:55:54.820Z,1.40
2022-11-09T05:58:23.509Z,1.30
2022-11-09T06:00:52.337Z,2.13
2022-11-09T06:03:21.226Z,2.37
2022-11-09T06:05:51.706Z,3.17
2022-11-09T06:08:20.486Z,2.00
2022-11-09T06:10:48.789Z,2.13
2022-11-09T06:13:17.573Z,2.80
2022-11-09T06:15:53.543Z,2.37
2022-11-09T06:18:21.746Z,1.87
2022-11-09T06:20:54.943Z,1.40
2022-11-09T06:23:26.223Z,1.77
2022-11-09T06:25:55.004Z,1.53
2022-11-09T06:28:23.621Z,1.27
2022-11-09T06:30:52.360Z,0.93
2022-11-09T06:33:20.888Z,0.50
2022-11-09T06:35:55.955Z,1.00
2022-11-09T06:38:27.463Z,1.73
2022-11-09T06:40:58.358Z,2.50
2022-11-09T06:43:28.348Z,2.27
2022-11-09T06:45:58.095Z,2.30
2022-11-09T06:48:27.725Z,2.10
2022-11-09T06:50:56.496Z,6.40
2022-11-09T06:53:27.848Z,8.60
2022-11-09T06:55:59.900Z,7.43
2022-11-09T06:58:29.155Z,2.27
2022-11-09T07:00:57.800Z,2.27
2022-11-09T07:03:27.224Z,1.60
2022-11-09T07:05:55.899Z,1.70
2022-11-09T07:08:25.614Z,1.43
2022-11-09T07:10:53.795Z,1.90
2022-11-09T07:13:22.828Z,3.23
2022-11-09T07:15:55.560Z,2.40
2022-11-09T07:18:24.391Z,1.17
2022-11-09T07:20:52.649Z,1.20
2022-11-09T07:23:21.815Z,1.40
2022-11-09T07:25:52.393Z,1.63
2022-11-09T07:28:21.160Z,1.50
2022-11-09T07:30:52.872Z,1.83
2022-11-09T07:33:22.942Z,2.03
2022-11-09T07:35:51.787Z,2.40
2022-11-09T07:38:20.822Z,2.10
2022-11-09T07:43:41.982Z,1.27
2022-11-09T07:46:10.626Z,0.87
2022-11-09T07:48:38.988Z,0.70
2022-11-09T07:51:07.812Z,0.57
2022-11-09T07:53:36.335Z,0.80
2022-11-09T07:56:07.040Z,1.00
2022-11-09T07:58:36.852Z,0.77
2022-11-09T08:01:09.585Z,0.50
2022-11-09T08:03:38.544Z,0.80
2022-11-09T08:06:07.572Z,0.50
2022-11-09T08:08:35.856Z,0.80
2022-11-09T08:11:06.203Z,0.73
2022-11-09T08:13:34.614Z,0.97
2022-11-09T08:16:04.222Z,0.70
2022-11-09T08:18:32.587Z,0.67
2022-11-09T08:21:03.985Z,0.60
2022-11-09T08:23:32.791Z,0.70
2022-11-09T08:26:07.249Z,0.83
2022-11-09T08:28:36.320Z,0.80
2022-11-09T08:31:07.331Z,0.83
2022-11-09T08:33:40.716Z,1.00
2022-11-09T08:36:14.007Z,1.20
2022-11-09T08:38:43.464Z,0.93
2022-11-09T08:41:14.786Z,1.00
2022-11-09T08:43:43.078Z,0.87
2022-11-09T08:46:11.580Z,0.73
2022-11-09T08:48:39.832Z,0.80
2022-11-09T08:51:08.554Z,0.80
2022-11-09T08:53:36.778Z,0.93
2022-11-09T08:56:08.728Z,0.90
2022-11-09T08:58:38.484Z,0.93
2022-11-09T09:01:15.383Z,0.90
2022-11-09T09:03:47.436Z,0.63
2022-11-09T09:06:15.709Z,0.73
2022-11-09T09:08:43.911Z,0.70
2022-11-09T09:11:12.522Z,0.70
2022-11-09T09:13:43.565Z,0.97
2022-11-09T09:16:14.414Z,2.00
2022-11-09T09:18:42.898Z,3.00
2022-11-09T09:21:13.514Z,2.80
2022-11-09T09:23:42.131Z,1.60
2022-11-09T09:26:10.406Z,1.00
2022-11-09T09:28:39.156Z,1.30
2022-11-09T09:31:13.144Z,1.30
2022-11-09T09:33:46.508Z,1.70
2022-11-09T09:36:20.283Z,1.40
2022-11-09T09:38:52.519Z,0.90
2022-11-09T09:41:29.617Z,1.40
2022-11-09T09:44:07.217Z,1.20
2022-11-09T09:46:44.779Z,1.27
2022-11-09T09:49:22.539Z,0.90
2022-11-09T09:51:58.140Z,0.80
2022-11-09T09:54:32.032Z,0.70
2022-11-09T09:57:03.241Z,0.60
2022-11-09T09:59:41.853Z,0.60
2022-11-09T10:02:23.205Z,0.80
2022-11-09T10:04:53.952Z,0.60
2022-11-09T10:07:34.632Z,0.40
2022-11-09T10:10:23.894Z,0.50
2022-11-09T10:13:23.123Z,0.80
2022-11-09T10:16:00.279Z,0.70
2022-11-09T10:18:48.539Z,0.40
2022-11-09T10:21:32.677Z,1.33
2022-11-09T10:24:26.064Z,0.90
2022-11-09T10:26:59.052Z,0.57
2022-11-09T10:29:34.040Z,1.00
2022-11-09T10:32:14.791Z,0.73
2022-11-09T10:34:55.253Z,0.60
2022-11-09T10:37:33.138Z,0.63
2022-11-09T10:40:13.328Z,0.35
2022-11-09T10:43:02.932Z,0.55
2022-11-09T10:46:04.884Z,0.73
2022-11-09T10:48:54.155Z,0.75
2022-11-09T10:51:46.561Z,0.87
2022-11-09T10:54:37.826Z,0.95
2022-11-09T10:57:27.104Z,0.90
2022-11-09T11:00:17.849Z,1.10
2022-11-09T11:03:17.729Z,1.25
2022-11-09T11:06:07.907Z,0.93
2022-11-09T11:09:18.066Z,0.70
2022-11-09T11:12:17.477Z,1.27
2022-11-09T11:15:04.111Z,2.70
2022-11-09T11:18:00.928Z,1.50
2022-11-09T11:20:48.167Z,1.60
2022-11-09T11:23:36.988Z,1.10
2022-11-09T11:26:39.277Z,1.25
2022-11-09T11:29:44.157Z,1.05
2022-11-09T11:32:32.977Z,0.88
2022-11-09T11:35:31.295Z,1.13
2022-11-09T11:38:30.235Z,1.08
2022-11-09T11:41:54.001Z,0.70
2022-11-09T11:45:33.468Z,1.65
2022-11-09T11:48:40.390Z,0.80
2022-11-09T11:51:40.945Z,1.10
2022-11-09T11:54:43.695Z,1.50
2022-11-09T11:57:49.579Z,1.30
2022-11-09T12:00:47.157Z,2.10
2022-11-09T12:04:03.831Z,1.30
2022-11-09T12:07:20.800Z,1.70
2022-11-09T12:10:31.669Z,1.00
2022-11-09T12:13:49.359Z,1.83
2022-11-09T12:16:47.453Z,1.80
2022-11-09T12:19:58.554Z,2.28
2022-11-09T12:23:02.426Z,2.10
2022-11-09T12:26:09.532Z,1.70
2022-11-09T12:29:18.918Z,1.90
2022-11-09T12:32:20.338Z,1.70
2022-11-09T12:35:34.761Z,1.30
2022-11-09T12:38:26.100Z,1.38
2022-11-09T12:41:19.294Z,1.95
2022-11-09T12:44:17.327Z,1.83
2022-11-09T12:47:15.296Z,1.90
2022-11-09T12:50:02.611Z,2.30
2022-11-09T12:52:52.502Z,1.83
2022-11-09T12:55:51.355Z,2.00
2022-11-09T12:58:40.881Z,1.20
2022-11-09T13:01:55.270Z,1.30
2022-11-09T13:04:59.022Z,0.77
2022-11-09T13:07:51.044Z,1.20
2022-11-09T13:10:40.649Z,1.35
2022-11-09T13:13:27.674Z,1.27
2022-11-09T13:16:36.198Z,1.20
2022-11-09T13:19:54.301Z,1.63
2022-11-09T13:23:02.869Z,1.57
2022-11-09T13:25:53.147Z,1.70
2022-11-09T13:29:26.485Z,1.90
2022-11-09T13:32:33.799Z,1.10
2022-11-09T13:36:15.231Z,1.37
2022-11-09T13:39:39.172Z,1.70
2022-11-09T13:42:32.177Z,1.97
2022-11-09T13:45:34.997Z,2.00
2022-11-09T13:48:45.865Z,1.67
2022-11-09T13:51:47.477Z,3.10
2022-11-09T13:54:36.857Z,2.73
2022-11-09T13:57:25.727Z,2.00
2022-11-09T14:00:23.224Z,1.17
2022-11-09T14:03:23.508Z,1.17
2022-11-09T14:06:14.506Z,1.20
2022-11-09T14:09:04.443Z,1.37
2022-11-09T14:12:26.162Z,1.37
2022-11-09T14:15:30.549Z,1.30
2022-11-09T14:18:36.744Z,1.17
2022-11-09T14:21:42.866Z,1.80
2022-11-09T14:24:33.636Z,1.30
2022-11-09T14:27:23.002Z,1.30
2022-11-09T14:30:22.913Z,1.17
2022-11-09T14:33:26.089Z,1.17
2022-11-09T14:36:15.024Z,2.63
2022-11-09T14:39:05.521Z,1.80
2022-11-09T14:41:53.587Z,1.20
2022-11-09T14:44:45.675Z,1.40
2022-11-09T14:47:39.494Z,2.33
2022-11-09T14:50:29.522Z,1.23
2022-11-09T14:53:22.710Z,1.30
2022-11-09T14:56:14.805Z,1.60
2022-11-09T14:59:08.192Z,2.87
2022-11-09T15:02:04.255Z,3.63
2022-11-09T15:04:57.310Z,6.10
2022-11-09T15:07:48.363Z,3.67
2022-11-09T15:10:37.299Z,1.70
2022-11-09T15:13:33.656Z,1.80
2022-11-09T15:16:28.055Z,1.47
2022-11-09T15:19:31.095Z,1.90
2022-11-09T15:22:52.519Z,2.40
2022-11-09T15:25:56.590Z,1.40
2022-11-09T15:28:49.416Z,1.90
2022-11-09T15:31:38.297Z,1.10
2022-11-09T15:34:30.335Z,1.20
2022-11-09T15:37:28.625Z,1.90
2022-11-09T15:40:17.545Z,2.20
2022-11-09T15:43:04.600Z,2.13
2022-11-09T15:45:51.828Z,2.30
2022-11-09T15:48:45.608Z,4.20
2022-11-09T15:51:33.020Z,3.20
2022-11-09T15:54:20.397Z,6.40
2022-11-09T15:57:07.188Z,2.10
2022-11-09T15:59:54.302Z,1.77
2022-11-09T16:02:41.608Z,1.33
2022-11-09T16:05:29.637Z,1.63
2022-11-09T16:08:16.311Z,1.80
2022-11-09T16:11:06.189Z,1.53
2022-11-09T16:13:52.994Z,2.27
2022-11-09T16:16:40.482Z,2.80
2022-11-09T16:19:28.477Z,3.20
2022-11-09T16:22:16.717Z,3.67
2022-11-09T16:25:03.571Z,2.27
2022-11-09T16:27:51.534Z,2.43
2022-11-09T16:30:42.752Z,2.13
2022-11-09T16:33:33.433Z,1.90
2022-11-09T16:36:24.151Z,1.60
2022-11-09T16:39:17.125Z,2.13
2022-11-09T16:42:10.012Z,1.90
2022-11-09T16:45:05.066Z,2.77
2022-11-09T16:47:58.005Z,4.47
2022-11-09T16:50:47.107Z,4.87
2022-11-09T16:53:34.333Z,4.53
2022-11-09T16:56:28.738Z,8.23
2022-11-09T16:59:16.127Z,10.23
2022-11-09T17:02:03.207Z,5.30
2022-11-09T17:04:50.094Z,4.87
2022-11-09T17:07:42.733Z,4.40
2022-11-09T17:10:29.680Z,4.83
2022-11-09T17:13:18.171Z,2.47
2022-11-09T17:16:07.944Z,2.07
2022-11-09T17:18:56.615Z,1.67
2022-11-09T17:21:44.169Z,1.93
2022-11-09T17:24:33.444Z,1.60
2022-11-09T17:27:20.682Z,1.53
2022-11-09T17:30:10.718Z,1.47
2022-11-09T17:32:58.080Z,2.03
2022-11-09T17:35:44.992Z,2.03
2022-11-09T17:38:32.471Z,2.50
2022-11-09T17:41:21.736Z,2.50
2022-11-09T17:44:08.738Z,4.97
2022-11-09T17:46:57.447Z,8.93
2022-11-09T17:49:44.517Z,12.83
2022-11-09T17:52:31.798Z,5.97
2022-11-09T17:55:18.596Z,3.33
2022-11-09T17:58:06.254Z,2.97
2022-11-09T18:00:54.197Z,5.90
2022-11-09T18:03:43.293Z,3.03
2022-11-09T18:06:30.153Z,4.90
2022-11-09T18:09:40.420Z,5.63
2022-11-09T18:12:27.855Z,3.83
2022-11-09T18:15:14.711Z,11.47
2022-11-09T18:18:01.977Z,7.67
2022-11-09T18:20:50.473Z,4.80
2022-11-09T18:23:39.095Z,2.93
2022-11-09T18:26:26.349Z,9.90
2022-11-09T18:29:13.383Z,9.10
2022-11-09T18:32:01.124Z,17.30
2022-11-09T18:34:47.944Z,7.70
2022-11-09T18:37:37.279Z,4.97
2022-11-09T18:40:23.956Z,5.00
2022-11-09T18:43:11.929Z,4.97
2022-11-09T18:46:01.343Z,3.40
2022-11-09T18:48:54.196Z,3.87
2022-11-09T18:51:41.214Z,3.33
2022-11-09T18:54:30.041Z,6.80
2022-11-09T18:57:19.856Z,2.63
2022-11-09T19:00:08.303Z,2.07
2022-11-09T19:02:55.527Z,2.90
2022-11-09T19:05:44.727Z,1.67
2022-11-09T19:08:49.808Z,2.53
2022-11-09T19:11:39.809Z,2.07
2022-11-09T19:14:27.917Z,1.40
2022-11-09T19:17:17.302Z,2.40
2022-11-09T19:20:05.282Z,1.23
2022-11-09T19:22:51.911Z,3.63
2022-11-09T19:25:39.245Z,1.30
2022-11-09T19:28:27.588Z,1.80
2022-11-09T19:31:17.299Z,1.23
2022-11-09T19:34:04.171Z,1.53
2022-11-09T19:36:51.206Z,2.17
2022-11-09T19:39:43.122Z,2.73
2022-11-09T19:42:30.472Z,1.60
2022-11-09T19:45:19.316Z,1.07
2022-11-09T19:48:06.530Z,1.10
2022-11-09T19:50:54.352Z,0.90
2022-11-09T19:53:42.723Z,0.80
2022-11-09T19:56:32.911Z,1.47
2022-11-09T19:59:20.837Z,3.20
2022-11-09T20:02:11.012Z,1.40
2022-11-09T20:04:57.989Z,1.80
2022-11-09T20:07:44.976Z,2.57
2022-11-09T20:10:32.167Z,6.70
2022-11-09T20:13:20.229Z,0.83
2022-11-09T20:19:20.049Z,3.23
2022-11-09T20:22:07.053Z,4.63
2022-11-09T20:24:54.344Z,12.77
2022-11-09T20:27:41.004Z,2.23
2022-11-09T20:30:28.112Z,1.80
2022-11-09T20:33:15.652Z,1.63
2022-11-09T20:36:07.058Z,1.77
2022-11-09T20:38:54.687Z,1.70
2022-11-09T20:41:44.967Z,1.77
2022-11-09T20:44:32.187Z,2.60
2022-11-09T20:47:42.072Z,2.25
2022-11-09T20:50:28.567Z,3.60
2022-11-09T20:53:17.192Z,3.80
2022-11-09T20:56:04.673Z,2.53
2022-11-09T21:00:10.371Z,2.40
2022-11-09T21:02:57.276Z,2.40
2022-11-09T21:05:49.409Z,1.90
2022-11-09T21:08:40.759Z,1.90
2022-11-09T21:11:35.510Z,1.90
2022-11-09T21:14:22.628Z,2.43
2022-11-09T21:17:09.426Z,2.23
2022-11-09T21:19:56.749Z,2.40
2022-11-09T21:23:00.255Z,1.73
2022-11-09T21:26:06.416Z,1.83
2022-11-09T21:29:11.319Z,1.73
2022-11-09T21:31:58.517Z,2.13
2022-11-09T21:34:45.700Z,2.33
2022-11-09T21:37:32.925Z,2.00
2022-11-09T21:40:20.330Z,1.97
2022-11-09T21:43:08.557Z,2.00
2022-11-09T21:45:56.391Z,1.90
2022-11-09T21:48:43.447Z,2.50
2022-11-09T21:51:30.328Z,1.87
2022-11-09T21:54:17.673Z,2.23
2022-11-09T21:57:05.422Z,1.90
2022-11-09T21:59:54.164Z,1.87
2022-11-09T22:02:42.195Z,2.00
2022-11-09T22:05:29.441Z,2.30
2022-11-09T22:08:16.664Z,1.97
2022-11-09T22:11:08.204Z,1.63
2022-11-09T22:14:12.784Z,1.70
2022-11-09T22:17:01.923Z,1.60
2022-11-09T22:20:06.942Z,1.57
2022-11-09T22:22:54.317Z,1.57
2022-11-09T22:25:47.624Z,1.90
2022-11-09T22:28:35.825Z,1.40
2022-11-09T22:31:24.462Z,1.73
2022-11-09T22:34:12.991Z,1.50
2022-11-09T22:37:00.553Z,1.73
2022-11-09T22:39:47.886Z,1.53
2022-11-09T22:42:34.650Z,1.87
2022-11-09T22:45:21.486Z,2.40
2022-11-09T22:48:08.591Z,1.83
2022-11-09T22:50:57.214Z,1.57
2022-11-09T22:53:44.670Z,2.10
2022-11-09T22:56:32.453Z,2.30
2022-11-09T22:59:20.660Z,1.70
2022-11-09T23:02:07.725Z,1.60
2022-11-09T23:04:54.869Z,1.90
2022-11-09T23:07:43.920Z,2.03
2022-11-09T23:10:32.290Z,1.97
2022-11-09T23:13:19.416Z,1.83
2022-11-09T23:16:09.730Z,1.77
2022-11-09T23:18:57.388Z,2.20
2022-11-09T23:21:44.174Z,1.70
2022-11-09T23:24:50.887Z,2.27
2022-11-09T23:27:37.952Z,1.43
2022-11-09T23:30:25.876Z,1.83
2022-11-09T23:33:15.041Z,1.93
2022-11-09T23:36:04.759Z,2.20
2022-11-09T23:38:53.139Z,1.80
2022-11-09T23:41:41.386Z,2.20
2022-11-09T23:44:28.272Z,1.60
2022-11-09T23:47:15.484Z,2.60
2022-11-09T23:59:47.979Z,2.40
